Zprávy METAR z letišť v České republice

LKPR - Praha Ruzyně, Česká republika
Aktualizováno: 26.04.2018 17:00
 
Teplota vzduchu: 15°C
Vítr: Z 26 km/h
Rosný bod: -1°C
Vlhkost vzduchu: 34%
Tlak vzduchu: 1015 hPa
Stav počasí: Jasno
Oblačnost: jasná obloha
Viditelnost: více než 10 km
2018/04/26 15:00 LKPR 261500Z 28014KT 260V320 CAVOK 15/M01 Q1015 NOSIG
LKTB - Brno Tuřany, Česká republika
Aktualizováno: 26.04.2018 17:00
 
Teplota vzduchu: 16°C
Vítr: ZSZ 22 km/h
Rosný bod: 1°C
Vlhkost vzduchu: 36%
Tlak vzduchu: 1014 hPa
Stav počasí: Jasno
Oblačnost: jasná obloha
Viditelnost: více než 10 km
2018/04/26 15:00 LKTB 261500Z 29012KT 260V320 CAVOK 16/01 Q1014 NOSIG
 
LKKV - Karlovy Vary, Česká republika
Aktualizováno: 26.04.2018 17:00
 
Teplota vzduchu: 13°C
Vítr: ZJZ 22 km/h
nárazy až 41 km/h
Rosný bod: -2°C
Vlhkost vzduchu: 36%
Tlak vzduchu: 1015 hPa
Stav počasí: Jasno
Oblačnost: jasná obloha
Viditelnost: více než 10 km
2018/04/26 15:00 LKKV 261500Z 25012G22KT 210V270 CAVOK 13/M02 Q1015
LKMT - Ostrava Mošnov, Česká republika
Aktualizováno: 26.04.2018 17:00
 
Teplota vzduchu: 13°C
Vítr: JJZ 24 km/h
Rosný bod: 8°C
Vlhkost vzduchu: 72%
Tlak vzduchu: 1013 hPa
Oblačnost: skoro jasno
Viditelnost: 10 km
Detaily oblačnosti: skoro jasno 914 m
2018/04/26 15:00 LKMT 261500Z 21013KT 9999 FEW030 13/08 Q1013 NOSIG
 
LKPD - Pardubice, Česká republika
Aktualizováno: 26.04.2018 17:00
 
Teplota vzduchu: 16°C
Vítr: Z 31 km/h
Rosný bod: -2°C
Vlhkost vzduchu: 29%
Tlak vzduchu: 1014 hPa
Stav počasí: Jasno
Oblačnost: jasná obloha
Viditelnost: více než 10 km
2018/04/26 15:00 LKPD 261500Z 28017KT CAVOK 16/M02 Q1014 NOSIG
LKKB - Praha Kbely, Česká republika
Aktualizováno: 26.04.2018 17:00
 
Teplota vzduchu: 15°C
Vítr: ZSZ 30 km/h
Rosný bod: -3°C
Vlhkost vzduchu: 29%
Tlak vzduchu: 1015 hPa
Stav počasí: Jasno
Oblačnost: jasná obloha
Viditelnost: více než 10 km
2018/04/26 15:00 LKKB 261500Z 30016KT 230V320 CAVOK 15/M03 Q1015 NOSIG
 
LKCV - Čáslav, Česká republika
Aktualizováno: 26.04.2018 17:00
 
Vítr: ZSZ 31 km/h
Tlak vzduchu: 1014 hPa
Stav počasí: Jasno
Oblačnost: jasná obloha
Viditelnost: více než 10 km
2018/04/26 15:00 LKCV 261500Z 30017KT CAVOK ///// Q1014 NOSIG
LKNA - Náměšť n. Osl., Česká republika
Aktualizováno: 26.04.2018 17:00
 
Teplota vzduchu: 14°C
Vítr: Z 26 km/h
Rosný bod: 0°C
Vlhkost vzduchu: 39%
Tlak vzduchu: 1014 hPa
Stav počasí: Jasno
Oblačnost: jasná obloha
Viditelnost: více než 10 km
2018/04/26 15:00 LKNA 261500Z 28014KT CAVOK 14/00 Q1014 NOSIG
 
LKLN - Plzeň Líně, Česká republika
Aktualizováno: 26.04.2018 17:00
 
Teplota vzduchu: 15°C
Vítr: Z 19 km/h
Rosný bod: -1°C
Vlhkost vzduchu: 34%
Tlak vzduchu: 1016 hPa
Oblačnost: skoro jasno
Viditelnost: 10 km
Detaily oblačnosti: skoro jasno 2164 m
2018/04/26 15:00 LKLN 261500Z AUTO 26010KT 220V300 9999 FEW071 15/M01 Q1016
LKVO - Vodochody, Česká republika
Aktualizováno: 26.04.2018 17:00
 
Teplota vzduchu: 15°C
Vítr: ZSZ 33 km/h
Rosný bod: 0°C
Vlhkost vzduchu: 36%
Tlak vzduchu: 1015 hPa
Stav počasí: Jasno
Oblačnost: jasná obloha
Viditelnost: více než 10 km
2018/04/26 15:00 LKVO 261500Z 29018KT CAVOK 15/M00 Q1015

Metar display script od Saratoga-Weather.org
upravil a přeložil Miloš Jiřík